createdAt,value
2023-05-07T00:00:10.242Z,2.10
2023-05-07T00:02:39.109Z,2.40
2023-05-07T00:05:12.349Z,2.00
2023-05-07T00:07:41.419Z,2.23
2023-05-07T00:10:11.082Z,2.17
2023-05-07T00:12:39.629Z,2.40
2023-05-07T00:15:10.236Z,1.87
2023-05-07T00:17:39.062Z,1.83
2023-05-07T00:20:10.054Z,2.00
2023-05-07T00:22:38.893Z,2.10
2023-05-07T00:25:08.371Z,2.00
2023-05-07T00:27:36.682Z,2.13
2023-05-07T00:30:12.464Z,2.33
2023-05-07T00:32:46.646Z,2.03
2023-05-07T00:35:25.184Z,2.13
2023-05-07T00:37:53.356Z,1.93
2023-05-07T00:40:21.949Z,2.17
2023-05-07T00:42:51.677Z,2.10
2023-05-07T00:45:20.239Z,2.37
2023-05-07T00:47:48.742Z,2.10
2023-05-07T00:50:18.202Z,2.03
2023-05-07T00:52:47.913Z,2.10
2023-05-07T00:55:19.713Z,2.83
2023-05-07T00:57:48.281Z,2.40
2023-05-07T01:00:17.310Z,2.10
2023-05-07T01:02:45.994Z,2.47
2023-05-07T01:05:17.015Z,2.27
2023-05-07T01:07:48.021Z,2.50
2023-05-07T01:10:17.288Z,2.40
2023-05-07T01:12:46.913Z,2.60
2023-05-07T01:15:15.380Z,2.33
2023-05-07T01:17:44.602Z,2.13
2023-05-07T01:20:14.071Z,2.60
2023-05-07T01:22:46.047Z,2.63
2023-05-07T01:25:14.798Z,2.30
2023-05-07T01:27:43.422Z,2.70
2023-05-07T01:30:12.827Z,2.30
2023-05-07T01:32:46.363Z,2.73
2023-05-07T01:35:20.760Z,2.40
2023-05-07T01:37:51.783Z,2.40
2023-05-07T01:40:21.121Z,2.30
2023-05-07T01:42:50.971Z,2.43
2023-05-07T01:45:20.043Z,2.07
2023-05-07T01:47:49.097Z,2.17
2023-05-07T01:50:20.946Z,2.60
2023-05-07T01:52:53.574Z,2.60
2023-05-07T01:55:21.835Z,2.50
2023-05-07T01:57:50.212Z,2.10
2023-05-07T02:00:20.136Z,2.50
2023-05-07T02:02:48.562Z,2.53
2023-05-07T02:05:17.448Z,2.57
2023-05-07T02:07:45.897Z,2.70
2023-05-07T02:10:16.356Z,2.67
2023-05-07T02:12:44.981Z,2.33
2023-05-07T02:15:13.713Z,2.27
2023-05-07T02:18:01.364Z,2.73
2023-05-07T02:20:29.826Z,2.50
2023-05-07T02:22:58.388Z,2.60
2023-05-07T02:25:28.164Z,3.23
2023-05-07T02:27:56.728Z,2.43
2023-05-07T02:30:26.280Z,2.70
2023-05-07T02:32:54.728Z,2.60
2023-05-07T02:35:23.019Z,2.50
2023-05-07T02:37:51.254Z,2.23
2023-05-07T02:40:20.076Z,2.30
2023-05-07T02:42:50.111Z,2.50
2023-05-07T02:45:18.821Z,2.90
2023-05-07T02:47:48.277Z,2.57
2023-05-07T02:50:16.999Z,2.50
2023-05-07T02:52:45.435Z,2.37
2023-05-07T02:55:14.141Z,2.60
2023-05-07T02:57:42.441Z,2.13
2023-05-07T03:00:16.253Z,2.57
2023-05-07T03:02:44.998Z,2.80
2023-05-07T03:05:14.476Z,2.60
2023-05-07T03:07:46.385Z,2.60
2023-05-07T03:10:14.776Z,2.10
2023-05-07T03:12:43.138Z,2.17
2023-05-07T03:15:16.510Z,2.47
2023-05-07T03:17:45.359Z,2.50
2023-05-07T03:20:14.673Z,1.97
2023-05-07T03:22:43.304Z,2.30
2023-05-07T03:25:12.433Z,2.27
2023-05-07T03:27:40.788Z,2.70
2023-05-07T03:30:19.920Z,2.60
2023-05-07T03:32:48.504Z,2.03
2023-05-07T03:35:17.032Z,2.07
2023-05-07T03:37:45.288Z,2.47
2023-05-07T03:40:15.610Z,2.37
2023-05-07T03:42:44.033Z,2.40
2023-05-07T03:45:14.274Z,3.03
2023-05-07T03:47:42.573Z,2.57
2023-05-07T03:50:16.461Z,2.40
2023-05-07T03:52:44.792Z,2.20
2023-05-07T03:55:13.536Z,2.37
2023-05-07T03:57:41.891Z,2.10
2023-05-07T04:00:11.376Z,2.63
2023-05-07T04:02:42.298Z,2.63
2023-05-07T04:05:12.939Z,3.13
2023-05-07T04:07:41.340Z,2.30
2023-05-07T04:10:10.506Z,2.10
2023-05-07T04:12:39.025Z,2.27
2023-05-07T04:15:10.694Z,2.70
2023-05-07T04:17:46.483Z,2.60
2023-05-07T04:20:18.729Z,2.30
2023-05-07T04:22:47.045Z,2.50
2023-05-07T04:25:15.749Z,2.47
2023-05-07T04:27:44.129Z,2.80
2023-05-07T04:30:14.556Z,2.33
2023-05-07T04:32:45.654Z,2.60
2023-05-07T04:35:14.191Z,2.37
2023-05-07T04:37:42.980Z,2.50
2023-05-07T04:40:12.002Z,2.57
2023-05-07T04:42:41.890Z,2.53
2023-05-07T04:45:11.467Z,2.87
2023-05-07T04:47:39.815Z,2.53
2023-05-07T04:50:10.770Z,2.73
2023-05-07T04:52:39.769Z,2.90
2023-05-07T04:55:08.822Z,2.80
2023-05-07T04:57:38.976Z,2.40
2023-05-07T05:00:09.794Z,2.43
2023-05-07T05:02:38.562Z,2.37
2023-05-07T05:05:11.435Z,2.17
2023-05-07T05:07:39.764Z,2.43
2023-05-07T05:10:09.446Z,2.13
2023-05-07T05:12:37.980Z,2.77
2023-05-07T05:15:07.600Z,2.73
2023-05-07T05:17:36.206Z,2.20
2023-05-07T05:20:05.161Z,2.17
2023-05-07T05:22:35.328Z,2.17
2023-05-07T05:25:05.029Z,2.10
2023-05-07T05:27:33.460Z,2.10
2023-05-07T05:30:01.654Z,2.27
2023-05-07T05:32:30.082Z,2.20
2023-05-07T05:34:58.296Z,2.40
2023-05-07T05:37:27.829Z,2.20
2023-05-07T05:39:57.904Z,2.27
2023-05-07T05:42:27.581Z,2.00
2023-05-07T05:44:55.771Z,2.10
2023-05-07T05:47:25.298Z,2.30
2023-05-07T05:49:53.691Z,2.03
2023-05-07T05:52:24.919Z,2.23
2023-05-07T05:54:55.770Z,2.27
2023-05-07T05:57:28.013Z,2.20
2023-05-07T05:59:57.248Z,1.97
2023-05-07T06:02:28.139Z,2.33
2023-05-07T06:04:56.607Z,1.80
2023-05-07T06:07:24.958Z,2.13
2023-05-07T06:09:53.120Z,1.90
2023-05-07T06:12:21.819Z,1.70
2023-05-07T06:14:51.626Z,1.73
2023-05-07T06:17:21.863Z,2.20
2023-05-07T06:19:50.550Z,2.00
2023-05-07T06:22:22.556Z,1.50
2023-05-07T06:24:50.933Z,1.90
2023-05-07T06:27:19.308Z,1.87
2023-05-07T06:29:47.996Z,2.00
2023-05-07T06:32:18.287Z,2.07
2023-05-07T06:34:46.602Z,1.77
2023-05-07T06:37:15.035Z,1.90
2023-05-07T06:39:43.733Z,2.00
2023-05-07T06:42:13.634Z,1.80
2023-05-07T06:44:41.974Z,1.73
2023-05-07T06:47:10.330Z,1.63
2023-05-07T06:49:40.107Z,1.77
2023-05-07T06:52:08.463Z,1.90
2023-05-07T06:54:39.789Z,2.07
2023-05-07T06:57:08.381Z,1.63
2023-05-07T06:59:36.828Z,1.90
2023-05-07T07:02:05.283Z,2.10
2023-05-07T07:04:33.750Z,1.87
2023-05-07T07:07:03.777Z,1.80
2023-05-07T07:09:32.642Z,2.00
2023-05-07T07:12:01.060Z,1.77
2023-05-07T07:14:30.767Z,1.63
2023-05-07T07:16:59.125Z,1.50
2023-05-07T07:19:28.675Z,1.17
2023-05-07T07:21:57.258Z,1.67
2023-05-07T07:24:34.808Z,1.80
2023-05-07T07:27:05.374Z,1.53
2023-05-07T07:29:33.935Z,2.10
2023-05-07T07:32:02.414Z,1.47
2023-05-07T07:34:31.368Z,1.70
2023-05-07T07:36:59.829Z,1.70
2023-05-07T07:39:29.758Z,1.70
2023-05-07T07:41:58.381Z,1.80
2023-05-07T07:44:30.751Z,1.80
2023-05-07T07:46:59.455Z,1.80
2023-05-07T07:49:30.512Z,1.87
2023-05-07T07:52:00.565Z,1.63
2023-05-07T07:54:30.561Z,2.73
2023-05-07T07:56:58.956Z,1.60
2023-05-07T07:59:27.396Z,1.80
2023-05-07T08:01:58.060Z,1.60
2023-05-07T08:04:26.587Z,1.97
2023-05-07T08:06:55.542Z,1.93
2023-05-07T08:09:27.947Z,1.93
2023-05-07T08:12:10.078Z,2.23
2023-05-07T08:14:38.825Z,1.80
2023-05-07T08:17:07.496Z,1.73
2023-05-07T08:19:36.272Z,1.90
2023-05-07T08:22:05.386Z,1.90
2023-05-07T08:24:33.901Z,1.80
2023-05-07T08:27:09.758Z,2.13
2023-05-07T08:29:38.346Z,2.30
2023-05-07T08:32:06.713Z,1.70
2023-05-07T08:34:35.321Z,1.90
2023-05-07T08:37:06.173Z,2.00
2023-05-07T08:39:36.537Z,2.33
2023-05-07T08:42:09.276Z,1.80
2023-05-07T08:44:37.620Z,1.60
2023-05-07T08:47:09.492Z,2.07
2023-05-07T08:49:37.989Z,1.90
2023-05-07T08:52:08.043Z,1.87
2023-05-07T08:54:41.830Z,1.67
2023-05-07T08:57:33.448Z,1.60
2023-05-07T09:00:01.938Z,1.50
2023-05-07T09:02:30.234Z,2.13
2023-05-07T09:04:59.669Z,1.60
2023-05-07T09:07:28.237Z,1.63
2023-05-07T09:09:58.181Z,2.00
2023-05-07T09:12:36.449Z,2.10
2023-05-07T09:15:05.066Z,1.73
2023-05-07T09:17:33.562Z,1.80
2023-05-07T09:20:06.977Z,2.00
2023-05-07T09:22:36.551Z,1.90
2023-05-07T09:25:05.040Z,1.50
2023-05-07T09:27:35.508Z,1.80
2023-05-07T09:30:07.403Z,1.40
2023-05-07T09:32:50.870Z,1.40
2023-05-07T09:35:22.625Z,1.60
2023-05-07T09:37:51.193Z,1.60
2023-05-07T09:40:27.292Z,1.60
2023-05-07T09:42:57.698Z,1.30
2023-05-07T09:45:27.532Z,1.47
2023-05-07T09:47:58.216Z,1.50
2023-05-07T09:50:30.881Z,1.60
2023-05-07T09:52:59.597Z,1.60
2023-05-07T09:55:29.431Z,1.50
2023-05-07T09:58:03.457Z,1.53
2023-05-07T10:00:32.639Z,1.63
2023-05-07T10:03:04.108Z,1.50
2023-05-07T10:05:33.014Z,1.60
2023-05-07T10:08:04.656Z,1.50
2023-05-07T10:10:35.405Z,1.40
2023-05-07T10:13:11.330Z,1.60
2023-05-07T10:15:39.774Z,1.63
2023-05-07T10:18:09.154Z,1.60
2023-05-07T10:20:39.550Z,1.40
2023-05-07T10:23:10.068Z,1.70
2023-05-07T10:25:39.090Z,1.60
2023-05-07T10:28:12.675Z,1.30
2023-05-07T10:30:55.057Z,1.70
2023-05-07T10:33:30.622Z,1.60
2023-05-07T10:36:05.674Z,1.23
2023-05-07T10:38:38.650Z,1.30
2023-05-07T10:41:07.669Z,1.63
2023-05-07T10:43:44.777Z,1.40
2023-05-07T10:46:28.777Z,1.60
2023-05-07T10:49:12.642Z,1.33
2023-05-07T10:51:41.674Z,1.57
2023-05-07T10:54:28.723Z,1.30
2023-05-07T10:56:57.137Z,1.27
2023-05-07T10:59:45.423Z,1.57
2023-05-07T11:02:16.405Z,1.50
2023-05-07T11:04:45.418Z,1.53
2023-05-07T11:07:34.731Z,1.23
2023-05-07T11:10:08.945Z,1.20
2023-05-07T11:13:00.030Z,1.40
2023-05-07T11:15:47.623Z,1.50
2023-05-07T11:18:17.754Z,1.40
2023-05-07T11:21:00.323Z,1.40
2023-05-07T11:24:00.478Z,1.23
2023-05-07T11:26:31.433Z,1.70
2023-05-07T11:29:01.465Z,1.67
2023-05-07T11:31:31.322Z,1.43
2023-05-07T11:34:03.298Z,1.40
2023-05-07T11:36:34.554Z,1.47
2023-05-07T11:39:03.700Z,1.40
2023-05-07T11:41:39.322Z,1.70
2023-05-07T11:44:08.350Z,1.40
2023-05-07T11:46:40.141Z,1.47
2023-05-07T11:49:16.620Z,1.50
2023-05-07T11:51:46.077Z,1.50
2023-05-07T11:54:19.429Z,1.50
2023-05-07T11:56:48.656Z,1.53
2023-05-07T11:59:23.669Z,1.43
2023-05-07T12:01:53.420Z,1.50
2023-05-07T12:04:25.064Z,1.63
2023-05-07T12:06:57.017Z,1.60
2023-05-07T12:09:25.542Z,1.50
2023-05-07T12:11:57.339Z,1.60
2023-05-07T12:14:30.166Z,1.43
2023-05-07T12:17:05.295Z,1.60
2023-05-07T12:19:34.563Z,1.40
2023-05-07T12:22:04.804Z,1.57
2023-05-07T12:24:45.838Z,1.43
2023-05-07T12:27:14.269Z,1.40
2023-05-07T12:29:47.399Z,1.40
2023-05-07T12:32:18.808Z,1.40
2023-05-07T12:34:50.294Z,1.43
2023-05-07T12:37:18.931Z,1.60
2023-05-07T12:39:49.585Z,1.37
2023-05-07T12:42:19.194Z,1.50
2023-05-07T12:44:49.266Z,1.40
2023-05-07T12:47:19.382Z,1.53
2023-05-07T12:49:48.451Z,1.53
2023-05-07T12:52:17.068Z,1.57
2023-05-07T12:54:47.104Z,1.60
2023-05-07T12:57:21.403Z,1.60
2023-05-07T12:59:49.770Z,1.30
2023-05-07T13:02:19.831Z,1.57
2023-05-07T13:04:48.943Z,1.37
2023-05-07T13:07:17.499Z,1.30
2023-05-07T13:09:46.351Z,1.50
2023-05-07T13:12:14.827Z,1.40
2023-05-07T13:14:43.305Z,1.53
2023-05-07T13:17:11.497Z,1.90
2023-05-07T13:19:41.200Z,1.60
2023-05-07T13:22:09.674Z,1.60
2023-05-07T13:24:37.903Z,1.70
2023-05-07T13:27:06.949Z,1.60
2023-05-07T13:29:40.076Z,1.53
2023-05-07T13:32:08.517Z,1.77
2023-05-07T13:34:38.080Z,1.53
2023-05-07T13:37:11.348Z,1.47
2023-05-07T13:39:40.225Z,1.67
2023-05-07T13:42:10.250Z,1.43
2023-05-07T13:44:38.812Z,1.17
2023-05-07T13:47:07.176Z,1.50
2023-05-07T13:49:35.772Z,1.13
2023-05-07T13:52:04.161Z,1.40
2023-05-07T13:54:33.837Z,1.50
2023-05-07T13:57:03.703Z,1.53
2023-05-07T13:59:32.142Z,1.47
2023-05-07T14:02:00.538Z,1.30
2023-05-07T14:04:28.927Z,1.40
2023-05-07T14:06:58.072Z,1.60
2023-05-07T14:09:26.707Z,1.60
2023-05-07T14:11:56.579Z,1.53
2023-05-07T14:14:26.907Z,1.60
2023-05-07T14:16:55.236Z,1.50
2023-05-07T14:19:25.965Z,1.77
2023-05-07T14:21:54.264Z,1.20
2023-05-07T14:24:37.113Z,1.60
2023-05-07T14:27:08.410Z,1.57
2023-05-07T14:29:37.456Z,1.43
2023-05-07T14:32:06.449Z,1.30
2023-05-07T14:34:35.328Z,1.43
2023-05-07T14:37:03.977Z,1.20
2023-05-07T14:39:39.957Z,1.70
2023-05-07T14:42:10.334Z,1.73
2023-05-07T14:44:38.841Z,1.60
2023-05-07T14:47:07.292Z,1.40
2023-05-07T14:49:38.891Z,1.80
2023-05-07T14:52:08.447Z,1.50
2023-05-07T14:54:38.553Z,1.40
2023-05-07T14:57:14.312Z,1.73
2023-05-07T14:59:42.859Z,1.53
2023-05-07T15:02:12.109Z,1.20
2023-05-07T15:04:47.081Z,1.30
2023-05-07T15:07:16.292Z,1.40
2023-05-07T15:09:45.194Z,1.50
2023-05-07T15:12:15.937Z,1.40
2023-05-07T15:14:44.704Z,1.50
2023-05-07T15:17:13.047Z,1.63
2023-05-07T15:19:41.538Z,1.80
2023-05-07T15:22:09.980Z,1.77
2023-05-07T15:24:38.335Z,1.60
2023-05-07T15:27:11.015Z,2.30
2023-05-07T15:29:40.794Z,1.63
2023-05-07T15:32:09.487Z,1.80
2023-05-07T15:34:37.935Z,1.40
2023-05-07T15:37:06.867Z,1.47
2023-05-07T15:39:35.624Z,1.40
2023-05-07T15:42:08.245Z,1.93
2023-05-07T15:44:36.786Z,1.60
2023-05-07T15:47:06.560Z,1.60
2023-05-07T15:49:35.644Z,1.67
2023-05-07T15:52:03.896Z,1.40
2023-05-07T15:54:32.866Z,1.43
2023-05-07T15:57:02.129Z,1.60
2023-05-07T15:59:30.629Z,2.07
2023-05-07T16:01:58.953Z,1.60
2023-05-07T16:04:31.420Z,1.80
2023-05-07T16:06:59.756Z,1.67
2023-05-07T16:09:29.447Z,1.70
2023-05-07T16:11:58.004Z,1.73
2023-05-07T16:14:26.435Z,1.90
2023-05-07T16:16:56.881Z,1.63
2023-05-07T16:19:25.788Z,1.80
2023-05-07T16:21:55.643Z,1.73
2023-05-07T16:24:25.997Z,1.97
2023-05-07T16:26:54.391Z,1.80
2023-05-07T16:29:26.619Z,2.40
2023-05-07T16:31:55.098Z,1.57
2023-05-07T16:34:25.934Z,1.83
2023-05-07T16:36:55.984Z,1.97
2023-05-07T16:39:24.194Z,1.70
2023-05-07T16:41:52.478Z,1.87
2023-05-07T16:44:22.334Z,2.00
2023-05-07T16:46:50.889Z,1.77
2023-05-07T16:49:20.416Z,1.80
2023-05-07T16:51:49.072Z,1.80
2023-05-07T16:54:18.873Z,1.70
2023-05-07T16:56:47.190Z,2.00
2023-05-07T16:59:15.564Z,1.67
2023-05-07T17:01:44.136Z,1.50
2023-05-07T17:04:12.680Z,1.77
2023-05-07T17:06:40.910Z,1.47
2023-05-07T17:09:09.564Z,4.20
2023-05-07T17:11:39.311Z,1.90
2023-05-07T17:14:07.671Z,1.97
2023-05-07T17:16:36.027Z,1.80
2023-05-07T17:19:04.541Z,1.80
2023-05-07T17:21:33.108Z,1.60
2023-05-07T17:24:01.327Z,1.87
2023-05-07T17:26:29.719Z,1.57
2023-05-07T17:29:00.658Z,1.73
2023-05-07T17:31:29.490Z,1.93
2023-05-07T17:33:58.141Z,2.17
2023-05-07T17:36:26.624Z,2.00
2023-05-07T17:38:55.073Z,1.80
2023-05-07T17:41:25.579Z,1.83
2023-05-07T17:44:01.149Z,1.77
2023-05-07T17:46:31.552Z,2.23
2023-05-07T17:48:59.952Z,1.67
2023-05-07T17:51:36.099Z,1.90
2023-05-07T17:54:11.485Z,1.83
2023-05-07T17:56:40.124Z,2.37
2023-05-07T17:59:08.456Z,1.83
2023-05-07T18:01:42.470Z,1.83
2023-05-07T18:04:11.113Z,2.00
2023-05-07T18:06:39.912Z,1.90
2023-05-07T18:09:11.842Z,1.70
2023-05-07T18:11:41.145Z,1.70
2023-05-07T18:14:09.548Z,1.37
2023-05-07T18:16:40.109Z,1.57
2023-05-07T18:19:10.295Z,1.93
2023-05-07T18:21:38.614Z,1.63
2023-05-07T18:24:07.660Z,1.30
2023-05-07T18:26:36.089Z,1.60
2023-05-07T18:29:04.477Z,1.60
2023-05-07T18:31:37.613Z,2.10
2023-05-07T18:34:10.424Z,1.43
2023-05-07T18:36:40.758Z,1.70
2023-05-07T18:39:10.248Z,1.70
2023-05-07T18:41:38.616Z,1.70
2023-05-07T18:44:09.990Z,1.80
2023-05-07T18:46:38.355Z,1.80
2023-05-07T18:49:26.751Z,1.70
2023-05-07T18:51:56.684Z,1.60
2023-05-07T18:54:26.161Z,2.07
2023-05-07T18:56:54.801Z,1.33
2023-05-07T18:59:25.257Z,1.73
2023-05-07T19:01:53.666Z,1.50
2023-05-07T19:04:30.439Z,2.10
2023-05-07T19:06:58.792Z,1.83
2023-05-07T19:09:27.310Z,1.77
2023-05-07T19:11:57.019Z,1.60
2023-05-07T19:14:25.837Z,1.83
2023-05-07T19:16:54.081Z,1.40
2023-05-07T19:19:30.103Z,1.60
2023-05-07T19:21:58.521Z,1.57
2023-05-07T19:24:26.898Z,1.70
2023-05-07T19:26:55.761Z,1.60
2023-05-07T19:29:24.579Z,2.53
2023-05-07T19:31:52.898Z,1.60
2023-05-07T19:34:21.302Z,1.97
2023-05-07T19:36:51.547Z,1.60
2023-05-07T19:39:21.198Z,1.87
2023-05-07T19:41:53.040Z,1.83
2023-05-07T19:44:21.911Z,1.80
2023-05-07T19:46:50.363Z,1.70
2023-05-07T19:49:19.216Z,2.00
2023-05-07T19:51:48.213Z,1.70
2023-05-07T19:54:20.299Z,1.70
2023-05-07T19:56:48.668Z,2.43
2023-05-07T19:59:16.990Z,1.57
2023-05-07T20:01:45.434Z,1.50
2023-05-07T20:04:13.741Z,1.70
2023-05-07T20:06:42.224Z,1.43
2023-05-07T20:09:13.005Z,1.80
2023-05-07T20:11:42.782Z,1.60
2023-05-07T20:14:12.453Z,1.80
2023-05-07T20:16:42.846Z,2.13
2023-05-07T20:19:13.100Z,1.93
2023-05-07T20:21:41.527Z,1.83
2023-05-07T20:24:12.052Z,1.73
2023-05-07T20:26:41.550Z,1.60
2023-05-07T20:29:11.568Z,1.80
2023-05-07T20:31:40.335Z,1.90
2023-05-07T20:34:08.816Z,1.67
2023-05-07T20:36:37.944Z,1.50
2023-05-07T20:39:06.611Z,1.90
2023-05-07T20:41:35.109Z,1.90
2023-05-07T20:44:07.345Z,1.60
2023-05-07T20:46:38.686Z,1.83
2023-05-07T20:49:07.213Z,1.80
2023-05-07T20:51:35.879Z,1.60
2023-05-07T20:54:11.249Z,2.17
2023-05-07T20:56:45.492Z,1.73
2023-05-07T20:59:14.121Z,1.73
2023-05-07T21:01:44.364Z,1.67
2023-05-07T21:04:12.721Z,1.77
2023-05-07T21:06:41.154Z,1.60
2023-05-07T21:09:09.519Z,1.63
2023-05-07T21:11:38.052Z,1.80
2023-05-07T21:14:06.471Z,1.70
2023-05-07T21:16:35.250Z,1.73
2023-05-07T21:19:05.126Z,1.73
2023-05-07T21:21:33.576Z,1.73
2023-05-07T21:24:01.949Z,1.97
2023-05-07T21:26:30.252Z,1.90
2023-05-07T21:28:59.585Z,2.00
2023-05-07T21:31:27.948Z,1.50
2023-05-07T21:33:58.453Z,1.60
2023-05-07T21:36:28.620Z,1.90
2023-05-07T21:38:57.048Z,1.63
2023-05-07T21:41:26.330Z,1.67
2023-05-07T21:43:55.649Z,1.50
2023-05-07T21:46:24.183Z,1.97
2023-05-07T21:48:56.219Z,1.43
2023-05-07T21:51:24.662Z,2.23
2023-05-07T21:53:56.065Z,1.93
2023-05-07T21:56:24.628Z,1.60
2023-05-07T21:58:53.106Z,1.80
2023-05-07T22:01:21.448Z,1.80
2023-05-07T22:03:50.136Z,1.90
2023-05-07T22:06:21.932Z,1.80
2023-05-07T22:08:50.917Z,1.60
2023-05-07T22:11:21.276Z,2.10
2023-05-07T22:13:49.643Z,1.80
2023-05-07T22:16:18.195Z,2.03
2023-05-07T22:18:46.550Z,1.67
2023-05-07T22:21:15.288Z,2.17
2023-05-07T22:23:43.756Z,1.80
2023-05-07T22:26:12.909Z,1.80
2023-05-07T22:28:45.868Z,1.80
2023-05-07T22:31:14.347Z,2.30
2023-05-07T22:33:43.131Z,1.57
2023-05-07T22:36:11.656Z,1.80
2023-05-07T22:38:40.238Z,1.70
2023-05-07T22:41:09.923Z,1.83
2023-05-07T22:43:38.283Z,1.70
2023-05-07T22:46:08.349Z,1.93
2023-05-07T22:48:37.059Z,1.90
2023-05-07T22:51:05.579Z,1.47
2023-05-07T22:53:33.969Z,1.70
2023-05-07T22:56:07.720Z,2.17
2023-05-07T23:01:20.166Z,1.80
2023-05-07T23:03:48.653Z,1.83
2023-05-07T23:06:17.483Z,1.80
2023-05-07T23:08:46.468Z,1.97
2023-05-07T23:11:14.914Z,1.73
2023-05-07T23:13:43.695Z,1.80
2023-05-07T23:16:13.300Z,1.67
2023-05-07T23:18:43.305Z,2.07
2023-05-07T23:21:11.830Z,2.27
2023-05-07T23:23:41.540Z,1.73
2023-05-07T23:26:10.403Z,2.00
2023-05-07T23:28:38.645Z,2.27
2023-05-07T23:31:08.646Z,1.70
2023-05-07T23:33:37.188Z,1.77
2023-05-07T23:36:08.756Z,1.67
2023-05-07T23:38:37.237Z,2.27
2023-05-07T23:41:07.227Z,2.20
2023-05-07T23:43:35.700Z,1.90
2023-05-07T23:46:04.140Z,2.43
2023-05-07T23:48:32.601Z,1.80
2023-05-07T23:51:02.937Z,2.20
2023-05-07T23:53:33.318Z,1.87
2023-05-07T23:56:01.692Z,2.27
2023-05-07T23:58:30.305Z,2.00
